sensor_id;sensor_type;location;lat;lon;timestamp;P1;durP1;ratioP1;P2;durP2;ratioP2
40707;SDS011;26392;42.696;23.350;2023-04-16T00:00:35;9.88;;;4.38;;
40707;SDS011;26392;42.696;23.350;2023-04-16T00:03:01;12.55;;;4.88;;
40707;SDS011;26392;42.696;23.350;2023-04-16T00:05:26;8.07;;;4.28;;
40707;SDS011;26392;42.696;23.350;2023-04-16T00:07:52;10.45;;;4.43;;
40707;SDS011;26392;42.696;23.350;2023-04-16T00:10:17;8.15;;;3.72;;
40707;SDS011;26392;42.696;23.350;2023-04-16T00:12:43;10.73;;;3.83;;
40707;SDS011;26392;42.696;23.350;2023-04-16T00:15:08;8.95;;;3.42;;
40707;SDS011;26392;42.696;23.350;2023-04-16T00:17:34;5.95;;;3.80;;
40707;SDS011;26392;42.696;23.350;2023-04-16T00:20:00;10.27;;;4.28;;
40707;SDS011;26392;42.696;23.350;2023-04-16T00:22:25;8.30;;;3.83;;
40707;SDS011;26392;42.696;23.350;2023-04-16T00:24:51;7.50;;;3.80;;
40707;SDS011;26392;42.696;23.350;2023-04-16T00:27:17;7.00;;;3.40;;
40707;SDS011;26392;42.696;23.350;2023-04-16T00:29:43;7.38;;;3.22;;
40707;SDS011;26392;42.696;23.350;2023-04-16T00:32:08;10.23;;;3.72;;
40707;SDS011;26392;42.696;23.350;2023-04-16T00:34:34;13.68;;;5.13;;
40707;SDS011;26392;42.696;23.350;2023-04-16T00:36:59;12.63;;;5.32;;
40707;SDS011;26392;42.696;23.350;2023-04-16T00:39:25;11.98;;;5.57;;
40707;SDS011;26392;42.696;23.350;2023-04-16T00:41:50;13.57;;;7.85;;
40707;SDS011;26392;42.696;23.350;2023-04-16T00:44:16;18.33;;;9.10;;
40707;SDS011;26392;42.696;23.350;2023-04-16T00:46:41;24.17;;;10.50;;
40707;SDS011;26392;42.696;23.350;2023-04-16T00:49:07;17.63;;;8.63;;
40707;SDS011;26392;42.696;23.350;2023-04-16T00:51:34;15.10;;;7.85;;
40707;SDS011;26392;42.696;23.350;2023-04-16T00:53:59;14.40;;;6.47;;
40707;SDS011;26392;42.696;23.350;2023-04-16T00:56:25;11.20;;;4.85;;
40707;SDS011;26392;42.696;23.350;2023-04-16T00:58:52;9.85;;;4.60;;
40707;SDS011;26392;42.696;23.350;2023-04-16T01:01:20;9.75;;;4.30;;
40707;SDS011;26392;42.696;23.350;2023-04-16T01:03:46;11.95;;;4.85;;
40707;SDS011;26392;42.696;23.350;2023-04-16T01:06:13;9.98;;;4.18;;
40707;SDS011;26392;42.696;23.350;2023-04-16T01:08:40;9.07;;;3.83;;
40707;SDS011;26392;42.696;23.350;2023-04-16T01:11:06;9.50;;;4.40;;
40707;SDS011;26392;42.696;23.350;2023-04-16T01:13:31;9.80;;;4.38;;
40707;SDS011;26392;42.696;23.350;2023-04-16T01:15:58;12.93;;;4.75;;
40707;SDS011;26392;42.696;23.350;2023-04-16T01:18:24;9.95;;;3.85;;
40707;SDS011;26392;42.696;23.350;2023-04-16T01:20:50;9.13;;;3.60;;
40707;SDS011;26392;42.696;23.350;2023-04-16T01:23:16;5.75;;;2.90;;
40707;SDS011;26392;42.696;23.350;2023-04-16T01:25:45;7.60;;;3.28;;
40707;SDS011;26392;42.696;23.350;2023-04-16T01:28:11;12.48;;;3.85;;
40707;SDS011;26392;42.696;23.350;2023-04-16T01:30:37;9.90;;;3.42;;
40707;SDS011;26392;42.696;23.350;2023-04-16T01:33:02;8.65;;;3.63;;
40707;SDS011;26392;42.696;23.350;2023-04-16T01:35:27;9.30;;;3.15;;
40707;SDS011;26392;42.696;23.350;2023-04-16T01:37:53;8.95;;;3.67;;
40707;SDS011;26392;42.696;23.350;2023-04-16T01:40:19;10.65;;;3.38;;
40707;SDS011;26392;42.696;23.350;2023-04-16T01:42:44;11.00;;;3.25;;
40707;SDS011;26392;42.696;23.350;2023-04-16T01:45:10;10.30;;;3.47;;
40707;SDS011;26392;42.696;23.350;2023-04-16T01:47:35;8.65;;;4.00;;
40707;SDS011;26392;42.696;23.350;2023-04-16T01:50:01;8.13;;;3.28;;
40707;SDS011;26392;42.696;23.350;2023-04-16T01:52:28;5.25;;;3.13;;
40707;SDS011;26392;42.696;23.350;2023-04-16T01:54:54;6.22;;;3.20;;
40707;SDS011;26392;42.696;23.350;2023-04-16T01:57:19;10.50;;;3.30;;
40707;SDS011;26392;42.696;23.350;2023-04-16T01:59:45;6.10;;;2.67;;
40707;SDS011;26392;42.696;23.350;2023-04-16T02:02:11;8.63;;;3.10;;
40707;SDS011;26392;42.696;23.350;2023-04-16T02:04:38;14.98;;;4.28;;
40707;SDS011;26392;42.696;23.350;2023-04-16T02:07:05;9.60;;;3.97;;
40707;SDS011;26392;42.696;23.350;2023-04-16T02:09:33;7.57;;;3.28;;
40707;SDS011;26392;42.696;23.350;2023-04-16T02:11:59;9.90;;;3.50;;
40707;SDS011;26392;42.696;23.350;2023-04-16T02:14:27;10.68;;;4.13;;
40707;SDS011;26392;42.696;23.350;2023-04-16T02:16:53;10.25;;;4.32;;
40707;SDS011;26392;42.696;23.350;2023-04-16T02:19:18;7.18;;;3.83;;
40707;SDS011;26392;42.696;23.350;2023-04-16T02:21:43;9.15;;;4.28;;
40707;SDS011;26392;42.696;23.350;2023-04-16T02:24:09;13.68;;;4.47;;
40707;SDS011;26392;42.696;23.350;2023-04-16T02:26:34;8.38;;;4.68;;
40707;SDS011;26392;42.696;23.350;2023-04-16T02:29:00;8.35;;;4.68;;
40707;SDS011;26392;42.696;23.350;2023-04-16T02:31:25;12.50;;;4.95;;
40707;SDS011;26392;42.696;23.350;2023-04-16T02:33:52;11.68;;;5.25;;
40707;SDS011;26392;42.696;23.350;2023-04-16T02:36:18;13.98;;;5.78;;
40707;SDS011;26392;42.696;23.350;2023-04-16T02:38:43;11.57;;;5.45;;
40707;SDS011;26392;42.696;23.350;2023-04-16T02:41:09;10.85;;;5.32;;
40707;SDS011;26392;42.696;23.350;2023-04-16T02:43:34;17.58;;;6.40;;
40707;SDS011;26392;42.696;23.350;2023-04-16T02:45:59;13.18;;;6.20;;
40707;SDS011;26392;42.696;23.350;2023-04-16T02:48:25;11.75;;;6.25;;
40707;SDS011;26392;42.696;23.350;2023-04-16T02:50:50;13.40;;;6.60;;
40707;SDS011;26392;42.696;23.350;2023-04-16T02:53:16;16.27;;;6.93;;
40707;SDS011;26392;42.696;23.350;2023-04-16T02:55:45;13.75;;;6.28;;
40707;SDS011;26392;42.696;23.350;2023-04-16T02:58:16;13.38;;;6.28;;
40707;SDS011;26392;42.696;23.350;2023-04-16T03:00:42;13.98;;;6.55;;
40707;SDS011;26392;42.696;23.350;2023-04-16T03:03:07;14.05;;;7.13;;
40707;SDS011;26392;42.696;23.350;2023-04-16T03:05:32;12.43;;;5.75;;
40707;SDS011;26392;42.696;23.350;2023-04-16T03:07:58;16.75;;;6.57;;
40707;SDS011;26392;42.696;23.350;2023-04-16T03:10:23;14.63;;;6.38;;
40707;SDS011;26392;42.696;23.350;2023-04-16T03:12:49;14.02;;;6.45;;
40707;SDS011;26392;42.696;23.350;2023-04-16T03:15:14;11.70;;;5.57;;
40707;SDS011;26392;42.696;23.350;2023-04-16T03:17:39;10.13;;;5.82;;
40707;SDS011;26392;42.696;23.350;2023-04-16T03:20:05;12.52;;;6.55;;
40707;SDS011;26392;42.696;23.350;2023-04-16T03:22:31;16.17;;;4.95;;
40707;SDS011;26392;42.696;23.350;2023-04-16T03:24:56;10.90;;;5.13;;
40707;SDS011;26392;42.696;23.350;2023-04-16T03:27:22;11.05;;;4.88;;
40707;SDS011;26392;42.696;23.350;2023-04-16T03:29:47;14.02;;;5.55;;
40707;SDS011;26392;42.696;23.350;2023-04-16T03:32:13;9.27;;;5.20;;
40707;SDS011;26392;42.696;23.350;2023-04-16T03:34:38;9.15;;;5.05;;
40707;SDS011;26392;42.696;23.350;2023-04-16T03:37:03;15.57;;;5.65;;
40707;SDS011;26392;42.696;23.350;2023-04-16T03:39:30;19.38;;;6.15;;
40707;SDS011;26392;42.696;23.350;2023-04-16T03:41:56;12.75;;;5.20;;
40707;SDS011;26392;42.696;23.350;2023-04-16T03:44:21;8.65;;;4.82;;
40707;SDS011;26392;42.696;23.350;2023-04-16T03:46:47;12.95;;;5.45;;
40707;SDS011;26392;42.696;23.350;2023-04-16T03:49:12;12.38;;;5.15;;
40707;SDS011;26392;42.696;23.350;2023-04-16T03:51:37;9.35;;;5.00;;
40707;SDS011;26392;42.696;23.350;2023-04-16T03:54:03;14.43;;;5.07;;
40707;SDS011;26392;42.696;23.350;2023-04-16T03:56:28;10.10;;;5.15;;
40707;SDS011;26392;42.696;23.350;2023-04-16T03:58:53;7.85;;;3.47;;
40707;SDS011;26392;42.696;23.350;2023-04-16T04:01:19;10.45;;;4.10;;
40707;SDS011;26392;42.696;23.350;2023-04-16T04:03:44;6.70;;;3.88;;
40707;SDS011;26392;42.696;23.350;2023-04-16T04:06:10;10.15;;;4.13;;
40707;SDS011;26392;42.696;23.350;2023-04-16T04:08:35;9.13;;;3.80;;
40707;SDS011;26392;42.696;23.350;2023-04-16T04:11:00;10.75;;;4.38;;
40707;SDS011;26392;42.696;23.350;2023-04-16T04:13:26;8.55;;;3.55;;
40707;SDS011;26392;42.696;23.350;2023-04-16T04:15:51;9.20;;;3.65;;
40707;SDS011;26392;42.696;23.350;2023-04-16T04:18:17;8.02;;;3.63;;
40707;SDS011;26392;42.696;23.350;2023-04-16T04:20:43;8.50;;;3.90;;
40707;SDS011;26392;42.696;23.350;2023-04-16T04:23:09;8.57;;;4.28;;
40707;SDS011;26392;42.696;23.350;2023-04-16T04:25:34;10.43;;;3.53;;
40707;SDS011;26392;42.696;23.350;2023-04-16T04:28:00;8.80;;;3.38;;
40707;SDS011;26392;42.696;23.350;2023-04-16T04:30:25;9.27;;;3.20;;
40707;SDS011;26392;42.696;23.350;2023-04-16T04:32:50;8.73;;;3.60;;
40707;SDS011;26392;42.696;23.350;2023-04-16T04:35:16;9.55;;;3.88;;
40707;SDS011;26392;42.696;23.350;2023-04-16T04:37:41;10.38;;;3.92;;
40707;SDS011;26392;42.696;23.350;2023-04-16T04:40:07;9.00;;;3.08;;
40707;SDS011;26392;42.696;23.350;2023-04-16T04:42:33;6.25;;;3.22;;
40707;SDS011;26392;42.696;23.350;2023-04-16T04:44:58;7.63;;;3.78;;
40707;SDS011;26392;42.696;23.350;2023-04-16T04:47:24;10.30;;;3.42;;
40707;SDS011;26392;42.696;23.350;2023-04-16T04:49:50;7.65;;;3.28;;
40707;SDS011;26392;42.696;23.350;2023-04-16T04:52:15;4.30;;;2.72;;
40707;SDS011;26392;42.696;23.350;2023-04-16T04:54:41;7.55;;;3.42;;
40707;SDS011;26392;42.696;23.350;2023-04-16T04:57:06;6.10;;;2.55;;
40707;SDS011;26392;42.696;23.350;2023-04-16T04:59:32;6.80;;;2.83;;
40707;SDS011;26392;42.696;23.350;2023-04-16T05:01:58;7.10;;;2.67;;
40707;SDS011;26392;42.696;23.350;2023-04-16T05:04:23;7.95;;;3.08;;
40707;SDS011;26392;42.696;23.350;2023-04-16T05:06:49;8.48;;;2.85;;
40707;SDS011;26392;42.696;23.350;2023-04-16T05:09:15;11.93;;;3.30;;
40707;SDS011;26392;42.696;23.350;2023-04-16T05:11:40;7.57;;;3.97;;
40707;SDS011;26392;42.696;23.350;2023-04-16T05:14:06;8.50;;;3.35;;
40707;SDS011;26392;42.696;23.350;2023-04-16T05:16:34;10.93;;;4.80;;
40707;SDS011;26392;42.696;23.350;2023-04-16T05:19:00;11.35;;;4.25;;
40707;SDS011;26392;42.696;23.350;2023-04-16T05:21:26;9.63;;;3.92;;
40707;SDS011;26392;42.696;23.350;2023-04-16T05:23:51;9.85;;;4.45;;
40707;SDS011;26392;42.696;23.350;2023-04-16T05:26:17;7.40;;;4.03;;
40707;SDS011;26392;42.696;23.350;2023-04-16T05:28:43;7.90;;;4.03;;
40707;SDS011;26392;42.696;23.350;2023-04-16T05:31:08;11.15;;;4.72;;
40707;SDS011;26392;42.696;23.350;2023-04-16T05:33:33;13.35;;;4.95;;
40707;SDS011;26392;42.696;23.350;2023-04-16T05:35:59;9.25;;;4.18;;
40707;SDS011;26392;42.696;23.350;2023-04-16T05:38:24;10.13;;;4.03;;
40707;SDS011;26392;42.696;23.350;2023-04-16T05:40:50;8.30;;;3.80;;
40707;SDS011;26392;42.696;23.350;2023-04-16T05:43:15;10.30;;;3.40;;
40707;SDS011;26392;42.696;23.350;2023-04-16T05:45:41;7.75;;;3.50;;
40707;SDS011;26392;42.696;23.350;2023-04-16T05:48:07;10.77;;;4.38;;
40707;SDS011;26392;42.696;23.350;2023-04-16T05:50:35;19.67;;;6.75;;
40707;SDS011;26392;42.696;23.350;2023-04-16T05:53:01;12.32;;;5.82;;
40707;SDS011;26392;42.696;23.350;2023-04-16T05:55:29;13.40;;;5.95;;
40707;SDS011;26392;42.696;23.350;2023-04-16T05:57:55;12.30;;;5.78;;
40707;SDS011;26392;42.696;23.350;2023-04-16T06:00:20;11.80;;;4.82;;
40707;SDS011;26392;42.696;23.350;2023-04-16T06:02:45;9.63;;;4.43;;
40707;SDS011;26392;42.696;23.350;2023-04-16T06:05:11;16.52;;;4.97;;
40707;SDS011;26392;42.696;23.350;2023-04-16T06:07:36;8.27;;;4.07;;
40707;SDS011;26392;42.696;23.350;2023-04-16T06:10:02;11.50;;;3.80;;
40707;SDS011;26392;42.696;23.350;2023-04-16T06:12:27;10.27;;;4.38;;
40707;SDS011;26392;42.696;23.350;2023-04-16T06:14:53;9.27;;;4.05;;
40707;SDS011;26392;42.696;23.350;2023-04-16T06:17:18;9.88;;;4.25;;
40707;SDS011;26392;42.696;23.350;2023-04-16T06:19:44;7.53;;;4.55;;
40707;SDS011;26392;42.696;23.350;2023-04-16T06:22:10;8.80;;;4.00;;
40707;SDS011;26392;42.696;23.350;2023-04-16T06:24:35;9.20;;;3.88;;
40707;SDS011;26392;42.696;23.350;2023-04-16T06:27:01;11.35;;;4.25;;
40707;SDS011;26392;42.696;23.350;2023-04-16T06:29:27;11.35;;;4.53;;
40707;SDS011;26392;42.696;23.350;2023-04-16T06:31:52;12.88;;;5.63;;
40707;SDS011;26392;42.696;23.350;2023-04-16T06:34:18;9.32;;;4.05;;
40707;SDS011;26392;42.696;23.350;2023-04-16T06:36:43;9.88;;;4.32;;
40707;SDS011;26392;42.696;23.350;2023-04-16T06:39:09;10.40;;;5.07;;
40707;SDS011;26392;42.696;23.350;2023-04-16T06:41:35;7.32;;;4.53;;
40707;SDS011;26392;42.696;23.350;2023-04-16T06:44:00;11.00;;;5.15;;
40707;SDS011;26392;42.696;23.350;2023-04-16T06:46:25;13.07;;;6.60;;
40707;SDS011;26392;42.696;23.350;2023-04-16T06:48:51;8.65;;;5.22;;
40707;SDS011;26392;42.696;23.350;2023-04-16T06:51:16;9.20;;;4.05;;
40707;SDS011;26392;42.696;23.350;2023-04-16T06:53:42;8.80;;;3.67;;
40707;SDS011;26392;42.696;23.350;2023-04-16T06:56:07;5.68;;;2.90;;
40707;SDS011;26392;42.696;23.350;2023-04-16T06:58:32;6.32;;;3.20;;
40707;SDS011;26392;42.696;23.350;2023-04-16T07:00:58;7.50;;;3.45;;
40707;SDS011;26392;42.696;23.350;2023-04-16T07:03:23;9.85;;;5.07;;
40707;SDS011;26392;42.696;23.350;2023-04-16T07:05:49;8.40;;;2.67;;
40707;SDS011;26392;42.696;23.350;2023-04-16T07:08:14;6.35;;;2.80;;
40707;SDS011;26392;42.696;23.350;2023-04-16T07:10:40;7.35;;;2.92;;
40707;SDS011;26392;42.696;23.350;2023-04-16T07:13:05;5.32;;;3.22;;
40707;SDS011;26392;42.696;23.350;2023-04-16T07:15:31;7.82;;;2.95;;
40707;SDS011;26392;42.696;23.350;2023-04-16T07:17:56;7.85;;;2.63;;
40707;SDS011;26392;42.696;23.350;2023-04-16T07:20:22;4.47;;;2.35;;
40707;SDS011;26392;42.696;23.350;2023-04-16T07:22:47;6.88;;;2.33;;
40707;SDS011;26392;42.696;23.350;2023-04-16T07:25:13;8.50;;;2.40;;
40707;SDS011;26392;42.696;23.350;2023-04-16T07:27:38;5.65;;;3.00;;
40707;SDS011;26392;42.696;23.350;2023-04-16T07:30:04;3.90;;;2.92;;
40707;SDS011;26392;42.696;23.350;2023-04-16T07:32:30;4.88;;;3.20;;
40707;SDS011;26392;42.696;23.350;2023-04-16T07:34:55;9.88;;;3.17;;
40707;SDS011;26392;42.696;23.350;2023-04-16T07:37:21;9.73;;;2.67;;
40707;SDS011;26392;42.696;23.350;2023-04-16T07:39:46;5.60;;;2.50;;
40707;SDS011;26392;42.696;23.350;2023-04-16T07:42:12;9.13;;;2.90;;
40707;SDS011;26392;42.696;23.350;2023-04-16T07:44:38;17.58;;;6.43;;
40707;SDS011;26392;42.696;23.350;2023-04-16T07:47:03;8.77;;;4.22;;
40707;SDS011;26392;42.696;23.350;2023-04-16T07:49:29;8.27;;;3.80;;
40707;SDS011;26392;42.696;23.350;2023-04-16T07:51:54;9.10;;;3.33;;
40707;SDS011;26392;42.696;23.350;2023-04-16T07:54:20;9.73;;;3.88;;
40707;SDS011;26392;42.696;23.350;2023-04-16T07:56:45;11.65;;;3.75;;
40707;SDS011;26392;42.696;23.350;2023-04-16T07:59:11;7.80;;;3.55;;
40707;SDS011;26392;42.696;23.350;2023-04-16T08:01:36;5.00;;;2.78;;
40707;SDS011;26392;42.696;23.350;2023-04-16T08:04:01;6.55;;;3.75;;
40707;SDS011;26392;42.696;23.350;2023-04-16T08:06:27;8.20;;;4.00;;
40707;SDS011;26392;42.696;23.350;2023-04-16T08:08:52;8.55;;;3.55;;
40707;SDS011;26392;42.696;23.350;2023-04-16T08:11:18;5.50;;;2.92;;
40707;SDS011;26392;42.696;23.350;2023-04-16T08:13:43;7.72;;;2.85;;
40707;SDS011;26392;42.696;23.350;2023-04-16T08:16:08;6.93;;;3.00;;
40707;SDS011;26392;42.696;23.350;2023-04-16T08:18:34;5.95;;;3.08;;
40707;SDS011;26392;42.696;23.350;2023-04-16T08:20:59;6.63;;;3.08;;
40707;SDS011;26392;42.696;23.350;2023-04-16T08:23:25;5.43;;;2.90;;
40707;SDS011;26392;42.696;23.350;2023-04-16T08:25:50;10.15;;;3.05;;
40707;SDS011;26392;42.696;23.350;2023-04-16T08:28:16;7.25;;;2.70;;
40707;SDS011;26392;42.696;23.350;2023-04-16T08:30:41;6.40;;;3.22;;
40707;SDS011;26392;42.696;23.350;2023-04-16T08:33:07;8.02;;;3.00;;
40707;SDS011;26392;42.696;23.350;2023-04-16T08:35:32;4.68;;;2.83;;
40707;SDS011;26392;42.696;23.350;2023-04-16T08:37:58;6.65;;;2.55;;
40707;SDS011;26392;42.696;23.350;2023-04-16T08:40:27;3.35;;;2.35;;
40707;SDS011;26392;42.696;23.350;2023-04-16T08:42:53;2.28;;;2.03;;
40707;SDS011;26392;42.696;23.350;2023-04-16T08:45:22;4.47;;;2.08;;
40707;SDS011;26392;42.696;23.350;2023-04-16T08:47:51;2.67;;;2.00;;
40707;SDS011;26392;42.696;23.350;2023-04-16T08:50:18;4.35;;;1.70;;
40707;SDS011;26392;42.696;23.350;2023-04-16T08:52:50;3.78;;;2.17;;
40707;SDS011;26392;42.696;23.350;2023-04-16T08:55:18;3.47;;;2.28;;
40707;SDS011;26392;42.696;23.350;2023-04-16T08:57:49;3.88;;;2.20;;
40707;SDS011;26392;42.696;23.350;2023-04-16T09:00:18;3.78;;;2.28;;
40707;SDS011;26392;42.696;23.350;2023-04-16T09:02:44;8.80;;;2.03;;
40707;SDS011;26392;42.696;23.350;2023-04-16T09:05:11;10.65;;;2.13;;
40707;SDS011;26392;42.696;23.350;2023-04-16T09:07:41;2.83;;;1.55;;
40707;SDS011;26392;42.696;23.350;2023-04-16T09:10:07;3.33;;;1.80;;
40707;SDS011;26392;42.696;23.350;2023-04-16T09:12:32;7.78;;;1.98;;
40707;SDS011;26392;42.696;23.350;2023-04-16T09:14:59;4.97;;;1.73;;
40707;SDS011;26392;42.696;23.350;2023-04-16T09:17:26;3.65;;;2.15;;
40707;SDS011;26392;42.696;23.350;2023-04-16T09:19:52;4.40;;;2.20;;
40707;SDS011;26392;42.696;23.350;2023-04-16T09:22:18;5.10;;;2.63;;
40707;SDS011;26392;42.696;23.350;2023-04-16T09:24:44;3.67;;;2.20;;
40707;SDS011;26392;42.696;23.350;2023-04-16T09:27:10;9.52;;;3.00;;
40707;SDS011;26392;42.696;23.350;2023-04-16T09:29:37;3.75;;;1.60;;
40707;SDS011;26392;42.696;23.350;2023-04-16T09:32:05;3.85;;;2.08;;
40707;SDS011;26392;42.696;23.350;2023-04-16T09:34:32;3.88;;;1.80;;
40707;SDS011;26392;42.696;23.350;2023-04-16T09:37:14;3.63;;;1.52;;
40707;SDS011;26392;42.696;23.350;2023-04-16T09:39:44;4.32;;;1.55;;
40707;SDS011;26392;42.696;23.350;2023-04-16T09:42:20;3.40;;;1.75;;
40707;SDS011;26392;42.696;23.350;2023-04-16T09:44:48;5.25;;;1.95;;
40707;SDS011;26392;42.696;23.350;2023-04-16T09:47:13;2.53;;;1.63;;
40707;SDS011;26392;42.696;23.350;2023-04-16T09:49:42;2.25;;;1.70;;
40707;SDS011;26392;42.696;23.350;2023-04-16T09:52:15;5.28;;;2.05;;
40707;SDS011;26392;42.696;23.350;2023-04-16T09:54:48;4.28;;;2.00;;
40707;SDS011;26392;42.696;23.350;2023-04-16T09:57:22;2.83;;;1.75;;
40707;SDS011;26392;42.696;23.350;2023-04-16T09:59:59;4.72;;;2.20;;
40707;SDS011;26392;42.696;23.350;2023-04-16T10:02:27;5.45;;;1.85;;
40707;SDS011;26392;42.696;23.350;2023-04-16T10:04:53;3.28;;;2.03;;
40707;SDS011;26392;42.696;23.350;2023-04-16T10:07:19;3.67;;;1.85;;
40707;SDS011;26392;42.696;23.350;2023-04-16T10:09:46;2.08;;;1.42;;
40707;SDS011;26392;42.696;23.350;2023-04-16T10:12:16;3.90;;;2.00;;
40707;SDS011;26392;42.696;23.350;2023-04-16T10:14:42;3.00;;;1.98;;
40707;SDS011;26392;42.696;23.350;2023-04-16T10:17:07;4.13;;;1.70;;
40707;SDS011;26392;42.696;23.350;2023-04-16T10:19:34;2.38;;;1.85;;
40707;SDS011;26392;42.696;23.350;2023-04-16T10:22:00;4.63;;;1.75;;
40707;SDS011;26392;42.696;23.350;2023-04-16T10:24:29;3.08;;;1.90;;
40707;SDS011;26392;42.696;23.350;2023-04-16T10:26:56;3.72;;;1.88;;
40707;SDS011;26392;42.696;23.350;2023-04-16T10:29:23;3.92;;;2.08;;
40707;SDS011;26392;42.696;23.350;2023-04-16T10:31:50;6.40;;;2.13;;
40707;SDS011;26392;42.696;23.350;2023-04-16T10:34:17;3.70;;;1.90;;
40707;SDS011;26392;42.696;23.350;2023-04-16T10:36:46;3.28;;;1.80;;
40707;SDS011;26392;42.696;23.350;2023-04-16T10:39:16;4.85;;;2.00;;
40707;SDS011;26392;42.696;23.350;2023-04-16T10:41:46;4.93;;;1.92;;
40707;SDS011;26392;42.696;23.350;2023-04-16T10:44:12;4.55;;;1.73;;
40707;SDS011;26392;42.696;23.350;2023-04-16T10:46:42;5.18;;;1.23;;
40707;SDS011;26392;42.696;23.350;2023-04-16T10:54:31;5.20;;;1.27;;
40707;SDS011;26392;42.696;23.350;2023-04-16T10:57:02;4.38;;;1.73;;
40707;SDS011;26392;42.696;23.350;2023-04-16T10:59:29;4.03;;;1.45;;
40707;SDS011;26392;42.696;23.350;2023-04-16T11:01:57;2.53;;;1.40;;
40707;SDS011;26392;42.696;23.350;2023-04-16T11:04:26;6.03;;;1.70;;
40707;SDS011;26392;42.696;23.350;2023-04-16T11:12:07;5.45;;;1.77;;
40707;SDS011;26392;42.696;23.350;2023-04-16T11:14:37;3.28;;;1.40;;
40707;SDS011;26392;42.696;23.350;2023-04-16T11:17:04;3.47;;;1.83;;
40707;SDS011;26392;42.696;23.350;2023-04-16T11:19:30;3.22;;;1.65;;
40707;SDS011;26392;42.696;23.350;2023-04-16T11:21:55;2.78;;;1.52;;
40707;SDS011;26392;42.696;23.350;2023-04-16T11:24:21;2.83;;;1.60;;
40707;SDS011;26392;42.696;23.350;2023-04-16T11:26:49;3.05;;;1.48;;
40707;SDS011;26392;42.696;23.350;2023-04-16T11:29:15;2.83;;;1.65;;
40707;SDS011;26392;42.696;23.350;2023-04-16T11:31:41;3.05;;;1.73;;
40707;SDS011;26392;42.696;23.350;2023-04-16T11:34:06;5.80;;;2.20;;
40707;SDS011;26392;42.696;23.350;2023-04-16T11:36:44;2.03;;;1.50;;
40707;SDS011;26392;42.696;23.350;2023-04-16T11:39:10;3.15;;;1.30;;
40707;SDS011;26392;42.696;23.350;2023-04-16T11:41:53;2.88;;;1.40;;
40707;SDS011;26392;42.696;23.350;2023-04-16T11:44:20;1.60;;;1.50;;
40707;SDS011;26392;42.696;23.350;2023-04-16T11:46:50;4.65;;;1.55;;
40707;SDS011;26392;42.696;23.350;2023-04-16T11:49:16;2.72;;;1.38;;
40707;SDS011;26392;42.696;23.350;2023-04-16T11:51:51;3.35;;;1.13;;
40707;SDS011;26392;42.696;23.350;2023-04-16T11:54:20;1.65;;;1.33;;
40707;SDS011;26392;42.696;23.350;2023-04-16T11:56:47;2.65;;;1.90;;
40707;SDS011;26392;42.696;23.350;2023-04-16T11:59:14;3.88;;;1.50;;
40707;SDS011;26392;42.696;23.350;2023-04-16T12:01:47;3.70;;;1.90;;
40707;SDS011;26392;42.696;23.350;2023-04-16T12:04:21;5.93;;;1.70;;
40707;SDS011;26392;42.696;23.350;2023-04-16T12:09:40;1.63;;;1.40;;
40707;SDS011;26392;42.696;23.350;2023-04-16T12:12:27;6.28;;;1.33;;
40707;SDS011;26392;42.696;23.350;2023-04-16T12:14:56;4.07;;;1.50;;
40707;SDS011;26392;42.696;23.350;2023-04-16T12:17:23;2.08;;;1.40;;
40707;SDS011;26392;42.696;23.350;2023-04-16T12:19:56;3.35;;;1.50;;
40707;SDS011;26392;42.696;23.350;2023-04-16T12:22:29;2.28;;;1.30;;
40707;SDS011;26392;42.696;23.350;2023-04-16T12:25:02;4.63;;;1.33;;
40707;SDS011;26392;42.696;23.350;2023-04-16T12:27:48;5.50;;;1.42;;
40707;SDS011;26392;42.696;23.350;2023-04-16T12:30:20;1.65;;;1.10;;
40707;SDS011;26392;42.696;23.350;2023-04-16T12:32:48;4.32;;;1.45;;
40707;SDS011;26392;42.696;23.350;2023-04-16T12:35:30;3.53;;;1.40;;
40707;SDS011;26392;42.696;23.350;2023-04-16T12:37:59;2.83;;;1.65;;
40707;SDS011;26392;42.696;23.350;2023-04-16T12:40:25;6.47;;;1.40;;
40707;SDS011;26392;42.696;23.350;2023-04-16T12:42:51;4.38;;;1.63;;
40707;SDS011;26392;42.696;23.350;2023-04-16T12:45:16;4.43;;;1.75;;
40707;SDS011;26392;42.696;23.350;2023-04-16T12:47:41;2.95;;;1.90;;
40707;SDS011;26392;42.696;23.350;2023-04-16T12:50:07;2.70;;;1.23;;
40707;SDS011;26392;42.696;23.350;2023-04-16T12:52:33;5.10;;;1.60;;
40707;SDS011;26392;42.696;23.350;2023-04-16T12:55:00;5.57;;;1.50;;
40707;SDS011;26392;42.696;23.350;2023-04-16T12:57:25;2.55;;;1.50;;
40707;SDS011;26392;42.696;23.350;2023-04-16T12:59:53;3.75;;;1.27;;
40707;SDS011;26392;42.696;23.350;2023-04-16T13:02:22;2.38;;;1.40;;
40707;SDS011;26392;42.696;23.350;2023-04-16T13:04:48;2.70;;;1.58;;
40707;SDS011;26392;42.696;23.350;2023-04-16T13:07:14;2.60;;;1.38;;
40707;SDS011;26392;42.696;23.350;2023-04-16T13:09:40;3.90;;;1.30;;
40707;SDS011;26392;42.696;23.350;2023-04-16T13:12:06;3.30;;;1.40;;
40707;SDS011;26392;42.696;23.350;2023-04-16T13:14:32;2.40;;;1.35;;
40707;SDS011;26392;42.696;23.350;2023-04-16T13:16:57;1.45;;;1.20;;
40707;SDS011;26392;42.696;23.350;2023-04-16T13:19:22;3.83;;;1.75;;
40707;SDS011;26392;42.696;23.350;2023-04-16T13:21:48;4.63;;;1.83;;
40707;SDS011;26392;42.696;23.350;2023-04-16T13:24:13;4.00;;;2.20;;
40707;SDS011;26392;42.696;23.350;2023-04-16T13:26:39;4.63;;;1.83;;
40707;SDS011;26392;42.696;23.350;2023-04-16T13:29:05;2.95;;;1.85;;
40707;SDS011;26392;42.696;23.350;2023-04-16T13:31:31;4.65;;;1.77;;
40707;SDS011;26392;42.696;23.350;2023-04-16T13:33:56;2.58;;;1.50;;
40707;SDS011;26392;42.696;23.350;2023-04-16T13:36:21;6.13;;;1.60;;
40707;SDS011;26392;42.696;23.350;2023-04-16T13:38:47;1.33;;;1.20;;
40707;SDS011;26392;42.696;23.350;2023-04-16T13:41:12;1.42;;;1.25;;
40707;SDS011;26392;42.696;23.350;2023-04-16T13:43:38;2.22;;;1.45;;
40707;SDS011;26392;42.696;23.350;2023-04-16T13:46:03;3.97;;;1.95;;
40707;SDS011;26392;42.696;23.350;2023-04-16T13:48:28;3.95;;;2.00;;
40707;SDS011;26392;42.696;23.350;2023-04-16T13:50:54;2.80;;;1.50;;
40707;SDS011;26392;42.696;23.350;2023-04-16T13:53:20;4.28;;;1.50;;
40707;SDS011;26392;42.696;23.350;2023-04-16T13:55:46;3.55;;;1.45;;
40707;SDS011;26392;42.696;23.350;2023-04-16T13:58:13;6.07;;;1.65;;
40707;SDS011;26392;42.696;23.350;2023-04-16T14:00:39;1.63;;;1.25;;
40707;SDS011;26392;42.696;23.350;2023-04-16T14:03:04;2.17;;;1.42;;
40707;SDS011;26392;42.696;23.350;2023-04-16T14:05:30;3.25;;;1.25;;
40707;SDS011;26392;42.696;23.350;2023-04-16T14:07:56;2.83;;;1.67;;
40707;SDS011;26392;42.696;23.350;2023-04-16T14:10:21;4.55;;;1.60;;
40707;SDS011;26392;42.696;23.350;2023-04-16T14:12:47;5.80;;;1.80;;
40707;SDS011;26392;42.696;23.350;2023-04-16T14:15:12;9.70;;;2.25;;
40707;SDS011;26392;42.696;23.350;2023-04-16T14:17:39;8.23;;;2.33;;
40707;SDS011;26392;42.696;23.350;2023-04-16T14:20:06;5.32;;;2.47;;
40707;SDS011;26392;42.696;23.350;2023-04-16T14:22:32;8.52;;;3.45;;
40707;SDS011;26392;42.696;23.350;2023-04-16T14:24:58;10.27;;;3.33;;
40707;SDS011;26392;42.696;23.350;2023-04-16T14:27:23;2.88;;;2.00;;
40707;SDS011;26392;42.696;23.350;2023-04-16T14:29:48;2.88;;;1.75;;
40707;SDS011;26392;42.696;23.350;2023-04-16T14:32:14;3.55;;;1.90;;
40707;SDS011;26392;42.696;23.350;2023-04-16T14:34:40;5.43;;;2.00;;
40707;SDS011;26392;42.696;23.350;2023-04-16T14:37:07;5.28;;;2.22;;
40707;SDS011;26392;42.696;23.350;2023-04-16T14:39:32;3.65;;;2.08;;